createdAt,value
2018-10-11T00:00:39.974Z,89.53
2018-10-11T00:03:09.681Z,89.28
2018-10-11T00:05:39.187Z,89.18
2018-10-11T00:08:09.225Z,89.07
2018-10-11T00:10:38.501Z,89.23
2018-10-11T00:13:07.848Z,89.14
2018-10-11T00:15:37.124Z,89.45
2018-10-11T00:18:06.593Z,89.21
2018-10-11T00:20:35.991Z,89.07
2018-10-11T00:23:05.721Z,89.12
2018-10-11T00:25:34.941Z,89.61
2018-10-11T00:28:04.242Z,89.59
2018-10-11T00:30:33.656Z,89.50
2018-10-11T00:33:02.904Z,89.65
2018-10-11T00:35:32.633Z,89.74
2018-10-11T00:38:02.010Z,89.87
2018-10-11T00:40:31.270Z,90.33
2018-10-11T00:43:00.509Z,90.24
2018-10-11T00:45:29.857Z,90.66
2018-10-11T00:47:59.157Z,90.83
2018-10-11T00:50:28.461Z,91.58
2018-10-11T00:52:57.789Z,92.06
2018-10-11T00:55:27.100Z,92.08
2018-10-11T00:57:56.372Z,92.24
2018-10-11T01:00:25.762Z,92.59
2018-10-11T01:02:55.141Z,92.59
2018-10-11T01:05:24.443Z,93.37
2018-10-11T01:07:53.760Z,93.68
2018-10-11T01:10:22.996Z,93.37
2018-10-11T01:12:52.319Z,93.93
2018-10-11T01:15:21.583Z,94.44
2018-10-11T01:17:50.814Z,94.61
2018-10-11T01:20:22.113Z,94.92
2018-10-11T01:22:51.419Z,94.83
2018-10-11T01:25:20.675Z,95.55
2018-10-11T01:27:49.965Z,95.82
2018-10-11T01:30:19.321Z,95.63
2018-10-11T01:32:48.612Z,95.58
2018-10-11T01:35:17.865Z,96.24
2018-10-11T01:37:47.113Z,96.00
2018-10-11T01:40:16.519Z,96.06
2018-10-11T01:42:45.924Z,96.50
2018-10-11T01:45:15.169Z,96.47
2018-10-11T01:47:44.485Z,96.63
2018-10-11T01:50:13.736Z,96.70
2018-10-11T01:52:43.050Z,96.93
2018-10-11T01:55:12.356Z,97.72
2018-10-11T01:57:41.721Z,97.92
2018-10-11T02:00:10.972Z,97.65
2018-10-11T02:02:40.198Z,97.84
2018-10-11T02:05:09.554Z,98.16
2018-10-11T02:07:38.848Z,98.07
2018-10-11T02:10:08.118Z,99.00
2018-10-11T02:12:37.393Z,98.56
2018-10-11T02:15:06.755Z,98.53
2018-10-11T02:17:36.046Z,98.28
2018-10-11T02:20:05.368Z,99.03
2018-10-11T02:22:34.750Z,99.26
2018-10-11T02:25:04.082Z,99.50
2018-10-11T02:27:33.391Z,99.43
2018-10-11T02:30:02.674Z,99.43
2018-10-11T02:32:31.926Z,99.89
2018-10-11T02:35:01.182Z,99.86
2018-10-11T02:37:30.449Z,100.00
2018-10-11T02:39:59.754Z,100.00
2018-10-11T02:42:29.182Z,100.00
2018-10-11T02:44:58.530Z,100.00
2018-10-11T02:47:27.844Z,100.00
2018-10-11T02:49:57.111Z,100.00
2018-10-11T02:52:26.412Z,100.00
2018-10-11T02:54:56.038Z,99.84
2018-10-11T02:57:36.573Z,100.00
2018-10-11T03:00:05.899Z,100.00
2018-10-11T03:02:37.322Z,100.00
2018-10-11T03:05:11.981Z,100.00
2018-10-11T03:07:41.665Z,100.00
2018-10-11T03:10:10.990Z,100.00
2018-10-11T03:12:40.365Z,100.00
2018-10-11T03:15:09.799Z,100.00
2018-10-11T03:17:39.070Z,100.00
2018-10-11T03:20:08.500Z,100.00
2018-10-11T03:22:37.863Z,100.00
2018-10-11T03:25:07.179Z,100.00
2018-10-11T03:27:36.480Z,100.00
2018-10-11T03:30:05.857Z,100.00
2018-10-11T03:32:35.172Z,99.85
2018-10-11T03:35:04.446Z,100.00
2018-10-11T03:37:33.747Z,100.00
2018-10-11T03:40:03.013Z,100.00
2018-10-11T03:42:32.351Z,99.71
2018-10-11T03:45:01.648Z,99.97
2018-10-11T03:47:30.925Z,99.70
2018-10-11T03:50:00.228Z,99.76
2018-10-11T03:52:29.507Z,99.56
2018-10-11T03:54:59.525Z,99.41
2018-10-11T03:57:28.786Z,99.80
2018-10-11T03:59:58.058Z,99.71
2018-10-11T04:02:27.420Z,99.33
2018-10-11T04:04:56.725Z,99.68
2018-10-11T04:07:26.577Z,98.90
2018-10-11T04:09:56.104Z,98.80
2018-10-11T04:12:25.670Z,98.91
2018-10-11T04:14:54.910Z,99.31
2018-10-11T04:17:24.233Z,98.60
2018-10-11T04:19:53.553Z,98.85
2018-10-11T04:22:22.875Z,98.56
2018-10-11T04:24:52.137Z,98.23
2018-10-11T04:27:21.482Z,98.43
2018-10-11T04:29:50.802Z,98.56
2018-10-11T04:32:20.016Z,99.37
2018-10-11T04:34:49.318Z,99.09
2018-10-11T04:37:18.590Z,99.31
2018-10-11T04:39:47.933Z,99.17
2018-10-11T04:42:17.216Z,99.34
2018-10-11T04:44:46.480Z,99.27
2018-10-11T04:47:15.779Z,98.87
2018-10-11T04:49:45.016Z,99.18
2018-10-11T04:52:14.355Z,99.35
2018-10-11T04:54:43.755Z,99.24
2018-10-11T04:57:13.043Z,99.07
2018-10-11T04:59:42.474Z,98.79
2018-10-11T05:02:12.890Z,99.26
2018-10-11T05:04:42.314Z,98.83
2018-10-11T05:07:11.816Z,98.93
2018-10-11T05:09:41.297Z,99.77
2018-10-11T05:12:11.249Z,99.83
2018-10-11T05:14:40.882Z,99.28
2018-10-11T05:20:10.613Z,99.03
2018-10-11T05:22:40.341Z,99.27
2018-10-11T05:25:09.564Z,99.26
2018-10-11T05:27:43.378Z,99.57
2018-10-11T05:30:18.222Z,99.32
2018-10-11T05:32:47.569Z,99.26
2018-10-11T05:35:16.785Z,99.39
2018-10-11T05:37:46.038Z,99.82
2018-10-11T05:40:15.501Z,99.54
2018-10-11T05:42:44.869Z,99.67
2018-10-11T05:45:18.874Z,99.67
2018-10-11T05:47:48.200Z,100.00
2018-10-11T05:50:18.029Z,99.85
2018-10-11T05:52:47.467Z,100.00
2018-10-11T05:55:16.836Z,100.00
2018-10-11T05:57:46.132Z,100.00
2018-10-11T06:00:15.536Z,100.00
2018-10-11T06:03:00.120Z,100.00
2018-10-11T06:05:30.175Z,100.00
2018-10-11T06:08:00.670Z,100.00
2018-10-11T06:10:31.538Z,100.00
2018-10-11T06:13:00.856Z,100.00
2018-10-11T06:15:30.390Z,100.00
2018-10-11T06:17:59.723Z,99.92
2018-10-11T06:20:29.154Z,100.00
2018-10-11T06:22:58.450Z,99.99
2018-10-11T06:25:28.109Z,100.00
2018-10-11T06:27:57.380Z,99.85
2018-10-11T06:30:26.756Z,98.75
2018-10-11T06:32:57.478Z,98.92
2018-10-11T06:35:28.072Z,99.40
2018-10-11T06:37:57.473Z,99.06
2018-10-11T06:40:26.778Z,98.81
2018-10-11T06:42:57.106Z,99.12
2018-10-11T06:45:26.533Z,98.51
2018-10-11T06:47:59.289Z,98.29
2018-10-11T06:50:28.677Z,98.25
2018-10-11T06:52:57.997Z,97.03
2018-10-11T06:55:27.346Z,96.91
2018-10-11T06:57:56.745Z,96.86
2018-10-11T07:00:26.037Z,97.22
2018-10-11T07:02:55.351Z,96.77
2018-10-11T07:05:24.643Z,96.15
2018-10-11T07:07:53.918Z,96.60
2018-10-11T07:10:24.424Z,96.55
2018-10-11T07:12:54.815Z,96.35
2018-10-11T07:15:25.488Z,96.39
2018-10-11T07:17:54.942Z,95.76
2018-10-11T07:20:24.293Z,95.00
2018-10-11T07:22:55.086Z,94.61
2018-10-11T07:25:24.373Z,94.81
2018-10-11T07:27:53.784Z,94.11
2018-10-11T07:30:23.124Z,94.13
2018-10-11T07:32:53.242Z,94.48
2018-10-11T07:35:22.715Z,93.75
2018-10-11T07:37:51.957Z,93.66
2018-10-11T07:40:21.308Z,93.38
2018-10-11T07:42:50.574Z,93.32
2018-10-11T07:45:19.952Z,93.03
2018-10-11T07:47:49.238Z,92.06
2018-10-11T07:50:18.559Z,92.03
2018-10-11T07:52:47.825Z,91.35
2018-10-11T07:55:17.260Z,90.85
2018-10-11T07:57:46.578Z,90.72
2018-10-11T08:00:15.866Z,90.28
2018-10-11T08:02:45.201Z,90.51
2018-10-11T08:05:14.593Z,89.24
2018-10-11T08:07:44.066Z,88.95
2018-10-11T08:10:13.228Z,89.04
2018-10-11T08:12:42.566Z,88.54
2018-10-11T08:15:11.920Z,88.18
2018-10-11T08:17:41.642Z,88.14
2018-10-11T08:20:10.634Z,87.58
2018-10-11T08:22:39.874Z,87.28
2018-10-11T08:25:09.394Z,87.15
2018-10-11T08:27:38.542Z,85.88
2018-10-11T08:30:08.630Z,83.52
2018-10-11T08:32:38.067Z,81.53
2018-10-11T08:35:07.355Z,80.07
2018-10-11T08:37:36.619Z,77.46
2018-10-11T08:40:05.967Z,75.81
2018-10-11T08:42:35.350Z,75.45
2018-10-11T08:45:04.698Z,72.68
2018-10-11T08:47:34.005Z,72.34
2018-10-11T08:50:03.337Z,71.25
2018-10-11T08:52:32.642Z,69.97
2018-10-11T08:55:02.079Z,69.08
2018-10-11T08:57:31.462Z,67.05
2018-10-11T09:00:00.750Z,68.51
2018-10-11T09:02:30.110Z,68.39
2018-10-11T09:04:59.471Z,67.10
2018-10-11T09:07:28.724Z,66.83
2018-10-11T09:09:58.146Z,65.23
2018-10-11T09:12:27.497Z,64.21
2018-10-11T09:14:56.791Z,64.03
2018-10-11T09:17:26.219Z,63.68
2018-10-11T09:20:00.278Z,61.74
2018-10-11T09:22:29.637Z,61.30
2018-10-11T09:24:59.969Z,60.74
2018-10-11T09:27:29.256Z,60.43
2018-10-11T09:29:58.783Z,58.40
2018-10-11T09:32:28.143Z,58.83
2018-10-11T09:34:57.490Z,58.72
2018-10-11T09:37:26.837Z,58.21
2018-10-11T09:39:56.212Z,58.20
2018-10-11T09:42:25.545Z,57.23
2018-10-11T09:44:54.830Z,57.24
2018-10-11T09:47:24.190Z,54.94
2018-10-11T09:49:53.412Z,54.31
2018-10-11T09:52:22.774Z,53.98
2018-10-11T09:54:52.152Z,55.40
2018-10-11T09:57:27.926Z,54.63
2018-10-11T09:59:57.683Z,54.19
2018-10-11T10:02:27.510Z,52.29
2018-10-11T10:05:03.261Z,52.27
2018-10-11T10:07:32.629Z,52.82
2018-10-11T10:10:02.120Z,49.52
2018-10-11T10:12:31.413Z,48.69
2018-10-11T10:15:00.730Z,49.79
2018-10-11T10:17:30.013Z,48.95
2018-10-11T10:19:59.311Z,48.40
2018-10-11T10:22:28.577Z,49.77
2018-10-11T10:24:58.852Z,49.16
2018-10-11T10:27:28.272Z,51.27
2018-10-11T10:29:57.575Z,50.99
2018-10-11T10:32:26.838Z,50.43
2018-10-11T10:34:56.181Z,49.70
2018-10-11T10:37:25.506Z,49.32
2018-10-11T10:39:54.796Z,48.55
2018-10-11T10:42:23.995Z,47.84
2018-10-11T10:44:53.298Z,47.72
2018-10-11T10:47:22.545Z,47.43
2018-10-11T10:49:51.805Z,48.74
2018-10-11T10:52:22.187Z,48.06
2018-10-11T10:54:51.544Z,49.62
2018-10-11T10:57:20.895Z,48.43
2018-10-11T10:59:50.154Z,48.09
2018-10-11T11:02:19.407Z,48.74
2018-10-11T11:04:48.787Z,47.73
2018-10-11T11:07:18.081Z,47.30
2018-10-11T11:09:47.494Z,48.03
2018-10-11T11:12:16.772Z,46.89
2018-10-11T11:14:46.007Z,46.34
2018-10-11T11:17:15.300Z,47.20
2018-10-11T11:19:44.906Z,44.96
2018-10-11T11:22:14.153Z,47.25
2018-10-11T11:24:43.416Z,44.13
2018-10-11T11:27:12.943Z,44.68
2018-10-11T11:29:42.285Z,44.74
2018-10-11T11:32:11.501Z,44.87
2018-10-11T11:34:40.789Z,45.18
2018-10-11T11:37:10.102Z,45.74
2018-10-11T11:39:40.756Z,45.70
2018-10-11T11:42:10.035Z,45.97
2018-10-11T11:44:39.278Z,45.63
2018-10-11T11:47:08.615Z,45.41
2018-10-11T11:49:37.850Z,44.66
2018-10-11T11:52:07.661Z,46.54
2018-10-11T11:54:38.010Z,46.95
2018-10-11T11:57:07.286Z,45.19
2018-10-11T11:59:36.555Z,44.87
2018-10-11T12:02:06.356Z,44.75
2018-10-11T12:04:35.608Z,45.73
2018-10-11T12:07:04.955Z,45.65
2018-10-11T12:09:34.298Z,45.02
2018-10-11T12:12:03.552Z,45.48
2018-10-11T12:14:32.822Z,45.91
2018-10-11T12:17:02.259Z,47.87
2018-10-11T12:19:31.514Z,48.80
2018-10-11T12:22:01.779Z,51.30
2018-10-11T12:24:31.078Z,52.16
2018-10-11T12:27:00.354Z,52.90
2018-10-11T12:29:29.654Z,53.37
2018-10-11T12:31:58.942Z,53.78
2018-10-11T12:34:28.221Z,53.47
2018-10-11T12:36:57.520Z,53.98
2018-10-11T12:39:26.854Z,54.62
2018-10-11T12:41:56.079Z,55.27
2018-10-11T12:44:25.541Z,54.22
2018-10-11T12:46:55.006Z,54.85
2018-10-11T12:49:24.310Z,54.58
2018-10-11T12:51:53.648Z,55.85
2018-10-11T12:54:22.910Z,54.77
2018-10-11T12:56:52.176Z,55.20
2018-10-11T12:59:21.511Z,55.44
2018-10-11T13:01:50.933Z,54.43
2018-10-11T13:04:20.250Z,54.89
2018-10-11T13:06:49.621Z,53.88
2018-10-11T13:09:18.973Z,54.54
2018-10-11T13:11:48.232Z,53.84
2018-10-11T13:14:18.577Z,53.26
2018-10-11T13:16:47.902Z,53.87
2018-10-11T13:19:17.280Z,52.60
2018-10-11T13:21:46.975Z,52.92
2018-10-11T13:24:16.377Z,52.24
2018-10-11T13:26:45.680Z,52.69
2018-10-11T13:29:14.929Z,53.83
2018-10-11T13:31:44.390Z,53.30
2018-10-11T13:34:13.678Z,54.07
2018-10-11T13:36:43.494Z,54.31
2018-10-11T13:39:12.835Z,54.62
2018-10-11T13:41:42.342Z,54.11
2018-10-11T13:44:11.410Z,54.65
2018-10-11T13:46:40.818Z,54.31
2018-10-11T13:49:10.112Z,54.25
2018-10-11T13:51:39.506Z,53.61
2018-10-11T13:54:08.910Z,53.09
2018-10-11T13:56:38.249Z,52.89
2018-10-11T13:59:11.839Z,52.31
2018-10-11T14:01:36.754Z,52.47
2018-10-11T14:04:06.396Z,52.91
2018-10-11T14:06:35.698Z,53.06
2018-10-11T14:09:08.548Z,52.77
2018-10-11T14:11:38.393Z,53.18
2018-10-11T14:14:07.747Z,53.04
2018-10-11T14:16:37.148Z,53.15
2018-10-11T14:19:06.546Z,53.19
2018-10-11T14:21:35.867Z,53.25
2018-10-11T14:24:05.161Z,52.84
2018-10-11T14:26:34.426Z,52.55
2018-10-11T14:29:03.756Z,52.15
2018-10-11T14:31:33.122Z,53.04
2018-10-11T14:34:02.459Z,52.78
2018-10-11T14:36:31.908Z,52.59
2018-10-11T14:39:01.158Z,51.68
2018-10-11T14:41:30.437Z,52.34
2018-10-11T14:43:59.734Z,51.87
2018-10-11T14:46:29.100Z,52.57
2018-10-11T14:51:26.567Z,52.84
2018-10-11T14:53:58.875Z,53.19
2018-10-11T14:56:25.216Z,53.18
2018-10-11T14:58:54.500Z,52.82
2018-10-11T15:01:23.798Z,53.02
2018-10-11T15:03:53.188Z,53.39
2018-10-11T15:06:22.589Z,53.38
2018-10-11T15:08:52.003Z,54.00
2018-10-11T15:11:21.361Z,54.51
2018-10-11T15:13:50.636Z,54.11
2018-10-11T15:16:19.937Z,54.90
2018-10-11T15:18:49.424Z,54.55
2018-10-11T15:21:19.838Z,53.82
2018-10-11T15:23:49.342Z,53.99
2018-10-11T15:26:20.510Z,54.25
2018-10-11T15:28:49.791Z,54.83
2018-10-11T15:31:19.212Z,55.18
2018-10-11T15:33:48.541Z,55.15
2018-10-11T15:36:18.845Z,54.80
2018-10-11T15:38:48.451Z,55.70
2018-10-11T15:41:17.751Z,55.02
2018-10-11T15:43:47.015Z,56.08
2018-10-11T15:46:17.345Z,56.29
2018-10-11T15:48:46.635Z,55.96
2018-10-11T15:51:30.691Z,56.25
2018-10-11T15:53:59.942Z,56.98
2018-10-11T15:56:29.204Z,56.58
2018-10-11T15:58:58.598Z,57.05
2018-10-11T16:01:27.855Z,57.55
2018-10-11T16:03:57.106Z,57.83
2018-10-11T16:06:26.419Z,58.41
2018-10-11T16:08:55.948Z,57.89
2018-10-11T16:11:25.343Z,58.21
2018-10-11T16:13:55.319Z,58.54
2018-10-11T16:16:24.645Z,58.55
2018-10-11T16:18:53.856Z,59.07
2018-10-11T16:28:10.971Z,60.38
2018-10-11T16:30:40.237Z,60.49
2018-10-11T16:33:09.573Z,61.47
2018-10-11T16:35:38.933Z,61.08
2018-10-11T16:38:08.459Z,61.23
2018-10-11T16:40:44.128Z,62.09
2018-10-11T16:43:13.342Z,61.60
2018-10-11T16:45:42.609Z,62.10
2018-10-11T16:48:12.093Z,62.77
2018-10-11T16:50:41.339Z,62.81
2018-10-11T16:53:10.813Z,62.95
2018-10-11T16:55:41.419Z,63.38
2018-10-11T16:58:11.042Z,64.47
2018-10-11T17:00:40.394Z,64.51
2018-10-11T17:03:09.750Z,64.58
2018-10-11T17:05:38.972Z,65.00
2018-10-11T17:08:08.400Z,65.67
2018-10-11T17:10:37.884Z,65.33
2018-10-11T17:13:07.369Z,65.46
2018-10-11T17:15:36.770Z,66.15
2018-10-11T17:18:06.174Z,66.26
2018-10-11T17:20:35.670Z,65.91
2018-10-11T17:23:05.003Z,66.04
2018-10-11T17:25:34.409Z,66.35
2018-10-11T17:28:03.747Z,67.64
2018-10-11T17:30:33.038Z,67.72
2018-10-11T17:33:02.447Z,67.71
2018-10-11T17:35:31.769Z,68.30
2018-10-11T17:38:01.050Z,68.62
2018-10-11T17:40:30.469Z,69.11
2018-10-11T17:42:59.824Z,69.77
2018-10-11T17:45:29.150Z,69.38
2018-10-11T17:47:58.553Z,70.12
2018-10-11T17:50:28.005Z,70.80
2018-10-11T17:52:57.364Z,70.21
2018-10-11T17:55:26.748Z,70.78
2018-10-11T17:57:56.030Z,70.98
2018-10-11T18:00:26.004Z,71.28
2018-10-11T18:02:55.364Z,71.09
2018-10-11T18:05:24.595Z,71.38
2018-10-11T18:07:54.106Z,71.01
2018-10-11T18:10:23.488Z,70.25
2018-10-11T18:12:52.758Z,71.28
2018-10-11T18:15:22.110Z,70.51
2018-10-11T18:17:51.458Z,70.68
2018-10-11T18:20:20.754Z,70.34
2018-10-11T18:22:50.265Z,70.36
2018-10-11T18:25:19.482Z,70.10
2018-10-11T18:27:48.738Z,70.38
2018-10-11T18:30:18.161Z,69.35
2018-10-11T18:32:47.407Z,70.16
2018-10-11T18:35:16.663Z,70.28
2018-10-11T18:37:46.065Z,69.40
2018-10-11T18:40:15.365Z,69.66
2018-10-11T18:42:44.639Z,69.39
2018-10-11T18:45:14.004Z,70.01
2018-10-11T18:47:43.268Z,69.50
2018-10-11T18:50:13.696Z,69.56
2018-10-11T18:52:43.026Z,70.36
2018-10-11T18:55:12.266Z,70.14
2018-10-11T18:57:41.646Z,69.79
2018-10-11T19:00:10.918Z,69.27
2018-10-11T19:02:41.431Z,69.29
2018-10-11T19:05:10.943Z,69.31
2018-10-11T19:07:40.369Z,68.68
2018-10-11T19:10:09.626Z,68.82
2018-10-11T19:12:39.037Z,68.93
2018-10-11T19:15:08.446Z,67.97
2018-10-11T19:17:37.838Z,68.52
2018-10-11T19:20:07.265Z,68.22
2018-10-11T19:22:36.539Z,67.95
2018-10-11T19:25:06.150Z,67.66
2018-10-11T19:27:35.578Z,67.45
2018-10-11T19:30:05.156Z,67.96
2018-10-11T19:32:34.430Z,67.51
2018-10-11T19:35:05.021Z,67.56
2018-10-11T19:37:34.226Z,67.37
2018-10-11T19:40:03.625Z,67.97
2018-10-11T19:42:33.007Z,67.11
2018-10-11T19:45:02.238Z,67.71
2018-10-11T19:47:31.630Z,67.81
2018-10-11T19:50:00.951Z,68.02
2018-10-11T19:52:30.272Z,68.42
2018-10-11T19:54:59.645Z,67.80
2018-10-11T19:57:28.870Z,67.94
2018-10-11T19:59:58.255Z,68.49
2018-10-11T20:02:27.574Z,68.82
2018-10-11T20:04:57.034Z,68.51
2018-10-11T20:07:26.308Z,68.51
2018-10-11T20:09:55.732Z,68.59
2018-10-11T20:12:25.010Z,69.26
2018-10-11T20:14:54.350Z,69.48
2018-10-11T20:17:23.805Z,68.47
2018-10-11T20:19:53.068Z,68.20
2018-10-11T20:22:22.330Z,68.94
2018-10-11T20:24:51.955Z,69.38
2018-10-11T20:27:21.357Z,69.64
2018-10-11T20:29:50.574Z,69.98
2018-10-11T20:32:19.870Z,69.69
2018-10-11T20:34:49.260Z,70.80
2018-10-11T20:37:18.543Z,71.08
2018-10-11T20:39:47.914Z,71.61
2018-10-11T20:42:17.230Z,70.92
2018-10-11T20:44:46.546Z,71.73
2018-10-11T20:47:15.950Z,71.49
2018-10-11T20:49:45.261Z,71.62
2018-10-11T20:52:14.637Z,72.80
2018-10-11T20:54:44.692Z,72.35
2018-10-11T20:57:13.983Z,72.80
2018-10-11T20:59:43.326Z,72.37
2018-10-11T21:02:12.655Z,72.87
2018-10-11T21:04:41.958Z,73.08
2018-10-11T21:07:12.415Z,73.52
2018-10-11T21:09:41.813Z,73.45
2018-10-11T21:12:11.177Z,73.83
2018-10-11T21:14:40.632Z,73.47
2018-10-11T21:17:10.026Z,73.58
2018-10-11T21:19:39.299Z,73.55
2018-10-11T21:22:08.909Z,73.61
2018-10-11T21:24:38.233Z,73.67
2018-10-11T21:27:07.635Z,73.89
2018-10-11T21:29:36.939Z,73.87
2018-10-11T21:32:06.291Z,73.62
2018-10-11T21:34:35.546Z,74.01
2018-10-11T21:37:04.943Z,74.03
2018-10-11T21:39:34.415Z,74.35
2018-10-11T21:42:03.733Z,74.45
2018-10-11T21:44:32.999Z,74.48
2018-10-11T21:47:02.300Z,74.82
2018-10-11T21:49:31.537Z,74.89
2018-10-11T21:52:01.263Z,74.87
2018-10-11T21:54:30.646Z,74.81
2018-10-11T21:56:59.909Z,74.86
2018-10-11T21:59:29.157Z,74.76
2018-10-11T22:01:58.614Z,74.65
2018-10-11T22:04:27.961Z,74.75
2018-10-11T22:06:57.266Z,74.86
2018-10-11T22:09:26.637Z,74.61
2018-10-11T22:11:55.889Z,74.51
2018-10-11T22:14:25.499Z,74.92
2018-10-11T22:16:55.297Z,74.95
2018-10-11T22:19:24.759Z,74.63
2018-10-11T22:21:54.094Z,74.83
2018-10-11T22:24:23.462Z,74.77
2018-10-11T22:26:52.767Z,74.81
2018-10-11T22:29:22.059Z,75.18
2018-10-11T22:31:51.423Z,75.40
2018-10-11T22:34:20.664Z,75.43
2018-10-11T22:36:50.044Z,75.47
2018-10-11T22:39:19.402Z,75.89
2018-10-11T22:41:48.702Z,75.72
2018-10-11T22:44:18.092Z,76.04
2018-10-11T22:46:47.480Z,76.21
2018-10-11T22:49:16.760Z,76.21
2018-10-11T22:51:46.060Z,76.32
2018-10-11T22:54:16.453Z,76.20
2018-10-11T22:56:45.731Z,76.31
2018-10-11T22:59:16.123Z,76.32
2018-10-11T23:01:45.379Z,76.22
2018-10-11T23:04:14.658Z,76.02
2018-10-11T23:06:45.049Z,76.30
2018-10-11T23:09:14.363Z,76.32
2018-10-11T23:11:43.654Z,76.57
2018-10-11T23:14:13.210Z,76.46
2018-10-11T23:16:42.520Z,76.45
2018-10-11T23:19:11.866Z,76.28
2018-10-11T23:21:41.241Z,76.55
2018-10-11T23:24:10.539Z,76.30
2018-10-11T23:26:39.919Z,76.40
2018-10-11T23:29:09.244Z,76.25
2018-10-11T23:31:38.544Z,76.29
2018-10-11T23:34:07.868Z,76.37
2018-10-11T23:36:37.239Z,76.59
2018-10-11T23:39:10.213Z,76.41
2018-10-11T23:41:39.869Z,76.59
2018-10-11T23:44:09.545Z,76.84
2018-10-11T23:46:38.996Z,76.87
2018-10-11T23:49:08.259Z,76.79
2018-10-11T23:51:37.665Z,76.89
2018-10-11T23:54:06.961Z,76.84
2018-10-11T23:56:36.205Z,76.84
2018-10-11T23:59:05.582Z,76.97
